sensor_id;sensor_type;location;lat;lon;timestamp;pressure;altitude;pressure_sealevel;temperature;humidity
40075;BME280;26529;51.530;11.754;2023-05-07T00:01:04;100434.44;;;20.76;47.81
40075;BME280;26529;51.530;11.754;2023-05-07T00:03:32;100423.78;;;20.76;47.84
40075;BME280;26529;51.530;11.754;2023-05-07T00:05:58;100422.03;;;20.75;47.94
40075;BME280;26529;51.530;11.754;2023-05-07T00:08:23;100422.03;;;20.75;47.88
40075;BME280;26529;51.530;11.754;2023-05-07T00:10:49;100427.50;;;20.73;48.02
40075;BME280;26529;51.530;11.754;2023-05-07T00:13:14;100425.66;;;20.74;47.74
40075;BME280;26529;51.530;11.754;2023-05-07T00:15:40;100433.56;;;20.76;47.85
40075;BME280;26529;51.530;11.754;2023-05-07T00:18:06;100434.44;;;20.76;47.80
40075;BME280;26529;51.530;11.754;2023-05-07T00:20:31;100444.31;;;20.74;47.94
40075;BME280;26529;51.530;11.754;2023-05-07T00:22:57;100443.34;;;20.75;47.87
40075;BME280;26529;51.530;11.754;2023-05-07T00:25:22;100446.97;;;20.74;47.90
40075;BME280;26529;51.530;11.754;2023-05-07T00:27:48;100441.66;;;20.74;47.88
40075;BME280;26529;51.530;11.754;2023-05-07T00:30:14;100431.88;;;20.74;47.70
40075;BME280;26529;51.530;11.754;2023-05-07T00:32:39;100442.63;;;20.73;47.75
40075;BME280;26529;51.530;11.754;2023-05-07T00:35:05;100440.81;;;20.73;47.66
40075;BME280;26529;51.530;11.754;2023-05-07T00:37:31;100449.66;;;20.74;47.79
40075;BME280;26529;51.530;11.754;2023-05-07T00:39:57;100446.16;;;20.73;47.77
40075;BME280;26529;51.530;11.754;2023-05-07T00:42:23;100455.94;;;20.73;47.78
40075;BME280;26529;51.530;11.754;2023-05-07T00:44:49;100448.81;;;20.73;47.82
40075;BME280;26529;51.530;11.754;2023-05-07T00:47:15;100445.28;;;20.73;47.82
40075;BME280;26529;51.530;11.754;2023-05-07T00:49:43;100454.13;;;20.73;47.74
40075;BME280;26529;51.530;11.754;2023-05-07T00:52:14;100452.31;;;20.74;47.75
40075;BME280;26529;51.530;11.754;2023-05-07T00:54:41;100461.28;;;20.73;47.88
40075;BME280;26529;51.530;11.754;2023-05-07T00:57:09;100459.56;;;20.72;47.75
40075;BME280;26529;51.530;11.754;2023-05-07T00:59:35;100455.94;;;20.73;47.78
40075;BME280;26529;51.530;11.754;2023-05-07T01:02:01;100461.28;;;20.73;47.73
40075;BME280;26529;51.530;11.754;2023-05-07T01:04:26;100455.94;;;20.73;47.77
40075;BME280;26529;51.530;11.754;2023-05-07T01:06:53;100459.56;;;20.72;47.71
40075;BME280;26529;51.530;11.754;2023-05-07T01:09:22;100445.28;;;20.73;47.63
40075;BME280;26529;51.530;11.754;2023-05-07T01:11:49;100445.28;;;20.73;47.62
40075;BME280;26529;51.530;11.754;2023-05-07T01:14:16;100436.53;;;20.71;47.87
40075;BME280;26529;51.530;11.754;2023-05-07T01:16:42;100440.91;;;20.72;47.74
40075;BME280;26529;51.530;11.754;2023-05-07T01:19:08;100438.25;;;20.72;47.61
40075;BME280;26529;51.530;11.754;2023-05-07T01:21:36;100436.53;;;20.71;47.70
40075;BME280;26529;51.530;11.754;2023-05-07T01:24:04;100440.91;;;20.72;47.79
40075;BME280;26529;51.530;11.754;2023-05-07T01:26:31;100451.56;;;20.72;47.66
40075;BME280;26529;51.530;11.754;2023-05-07T01:28:57;100456.91;;;20.72;47.81
40075;BME280;26529;51.530;11.754;2023-05-07T01:31:23;100463.19;;;20.71;47.83
40075;BME280;26529;51.530;11.754;2023-05-07T01:33:50;100464.03;;;20.71;47.66
40075;BME280;26529;51.530;11.754;2023-05-07T01:36:18;100462.22;;;20.72;47.79
40075;BME280;26529;51.530;11.754;2023-05-07T01:38:45;100462.22;;;20.72;47.89
40075;BME280;26529;51.530;11.754;2023-05-07T01:41:11;100459.56;;;20.72;47.75
40075;BME280;26529;51.530;11.754;2023-05-07T01:43:40;100459.56;;;20.72;47.59
40075;BME280;26529;51.530;11.754;2023-05-07T01:46:08;100456.16;;;20.70;47.80
40075;BME280;26529;51.530;11.754;2023-05-07T01:48:33;100455.19;;;20.71;47.66
40075;BME280;26529;51.530;11.754;2023-05-07T01:51:00;100451.66;;;20.70;47.88
40075;BME280;26529;51.530;11.754;2023-05-07T01:53:27;100448.25;;;20.68;47.66
40075;BME280;26529;51.530;11.754;2023-05-07T01:55:53;100450.84;;;20.70;47.78
40075;BME280;26529;51.530;11.754;2023-05-07T01:58:20;100452.53;;;20.71;47.66
40075;BME280;26529;51.530;11.754;2023-05-07T02:00:45;100452.63;;;20.69;47.57
40075;BME280;26529;51.530;11.754;2023-05-07T02:03:11;100449.88;;;20.71;47.56
40075;BME280;26529;51.530;11.754;2023-05-07T02:05:44;100451.75;;;20.69;47.57
40075;BME280;26529;51.530;11.754;2023-05-07T02:08:17;100456.16;;;20.70;47.72
40075;BME280;26529;51.530;11.754;2023-05-07T02:10:42;100459.75;;;20.69;47.76
40075;BME280;26529;51.530;11.754;2023-05-07T02:13:09;100465.09;;;20.69;47.65
40075;BME280;26529;51.530;11.754;2023-05-07T02:15:34;100467.66;;;20.70;47.59
40075;BME280;26529;51.530;11.754;2023-05-07T02:18:08;100465.09;;;20.69;47.58
40075;BME280;26529;51.530;11.754;2023-05-07T02:20:35;100475.75;;;20.69;47.53
40075;BME280;26529;51.530;11.754;2023-05-07T02:23:01;100469.56;;;20.68;47.66
40075;BME280;26529;51.530;11.754;2023-05-07T02:25:28;100475.75;;;20.69;47.71
40075;BME280;26529;51.530;11.754;2023-05-07T02:27:55;100468.63;;;20.69;47.65
40075;BME280;26529;51.530;11.754;2023-05-07T02:30:25;100474.81;;;20.70;47.43
40075;BME280;26529;51.530;11.754;2023-05-07T02:32:52;100467.75;;;20.69;47.59
40075;BME280;26529;51.530;11.754;2023-05-07T02:35:18;100465.09;;;20.69;47.66
40075;BME280;26529;51.530;11.754;2023-05-07T02:37:43;100465.09;;;20.69;47.58
40075;BME280;26529;51.530;11.754;2023-05-07T02:40:09;100469.56;;;20.68;47.58
40075;BME280;26529;51.530;11.754;2023-05-07T02:42:35;100471.38;;;20.68;47.71
40075;BME280;26529;51.530;11.754;2023-05-07T02:45:00;100471.38;;;20.68;47.66
40075;BME280;26529;51.530;11.754;2023-05-07T02:47:26;100468.72;;;20.68;47.68
40075;BME280;26529;51.530;11.754;2023-05-07T02:49:55;100471.38;;;20.68;47.57
40075;BME280;26529;51.530;11.754;2023-05-07T02:52:21;100474.03;;;20.68;47.67
40075;BME280;26529;51.530;11.754;2023-05-07T02:54:47;100479.38;;;20.68;47.67
40075;BME280;26529;51.530;11.754;2023-05-07T02:57:12;100476.69;;;20.68;47.65
40075;BME280;26529;51.530;11.754;2023-05-07T02:59:38;100474.03;;;20.68;47.64
40075;BME280;26529;51.530;11.754;2023-05-07T03:02:04;100475.00;;;20.67;47.58
40075;BME280;26529;51.530;11.754;2023-05-07T03:04:29;100466.03;;;20.68;47.65
40075;BME280;26529;51.530;11.754;2023-05-07T03:06:55;100472.34;;;20.67;47.61
40075;BME280;26529;51.530;11.754;2023-05-07T03:09:20;100467.00;;;20.67;47.62
40075;BME280;26529;51.530;11.754;2023-05-07T03:11:46;100472.34;;;20.67;47.55
40075;BME280;26529;51.530;11.754;2023-05-07T03:14:11;100477.66;;;20.67;47.60
40075;BME280;26529;51.530;11.754;2023-05-07T03:16:38;100474.25;;;20.65;47.59
40075;BME280;26529;51.530;11.754;2023-05-07T03:19:03;100481.28;;;20.66;47.66
40075;BME280;26529;51.530;11.754;2023-05-07T03:21:29;100468.94;;;20.65;47.68
40075;BME280;26529;51.530;11.754;2023-05-07T03:23:56;100469.66;;;20.67;47.49
40075;BME280;26529;51.530;11.754;2023-05-07T03:26:21;100476.84;;;20.66;47.66
40075;BME280;26529;51.530;11.754;2023-05-07T03:28:47;100473.31;;;20.66;47.56
40075;BME280;26529;51.530;11.754;2023-05-07T03:31:15;100467.97;;;20.66;47.55
40075;BME280;26529;51.530;11.754;2023-05-07T03:33:54;100465.31;;;20.66;47.60
40075;BME280;26529;51.530;11.754;2023-05-07T03:36:20;100470.63;;;20.66;47.61
40075;BME280;26529;51.530;11.754;2023-05-07T03:38:46;100467.97;;;20.66;47.49
40075;BME280;26529;51.530;11.754;2023-05-07T03:41:12;100462.63;;;20.66;47.58
40075;BME280;26529;51.530;11.754;2023-05-07T03:43:38;100463.59;;;20.65;47.61
40075;BME280;26529;51.530;11.754;2023-05-07T03:46:08;100458.28;;;20.65;47.49
40075;BME280;26529;51.530;11.754;2023-05-07T03:48:34;100452.94;;;20.65;47.57
40075;BME280;26529;51.530;11.754;2023-05-07T03:50:59;100459.97;;;20.66;47.56
40075;BME280;26529;51.530;11.754;2023-05-07T03:53:29;100465.41;;;20.64;47.50
40075;BME280;26529;51.530;11.754;2023-05-07T03:55:54;100468.94;;;20.65;47.54
40075;BME280;26529;51.530;11.754;2023-05-07T03:58:20;100475.97;;;20.66;47.49
40075;BME280;26529;51.530;11.754;2023-05-07T04:00:46;100476.91;;;20.65;47.55
40075;BME280;26529;51.530;11.754;2023-05-07T04:03:21;100482.25;;;20.65;47.61
40075;BME280;26529;51.530;11.754;2023-05-07T04:05:47;100489.38;;;20.64;47.60
40075;BME280;26529;51.530;11.754;2023-05-07T04:08:12;100492.03;;;20.64;47.67
40075;BME280;26529;51.530;11.754;2023-05-07T04:10:40;100490.25;;;20.65;47.43
40075;BME280;26529;51.530;11.754;2023-05-07T04:13:10;100491.22;;;20.64;47.56
40075;BME280;26529;51.530;11.754;2023-05-07T04:15:36;100495.56;;;20.65;47.33
40075;BME280;26529;51.530;11.754;2023-05-07T04:18:03;100497.50;;;20.63;47.58
40075;BME280;26529;51.530;11.754;2023-05-07T04:20:29;100491.22;;;20.64;47.50
40075;BME280;26529;51.530;11.754;2023-05-07T04:23:00;100489.38;;;20.64;47.42
40075;BME280;26529;51.530;11.754;2023-05-07T04:25:25;100493.00;;;20.63;47.60
40075;BME280;26529;51.530;11.754;2023-05-07T04:27:57;100494.84;;;20.63;47.62
40075;BME280;26529;51.530;11.754;2023-05-07T04:30:25;100488.53;;;20.64;47.50
40075;BME280;26529;51.530;11.754;2023-05-07T04:32:51;100492.16;;;20.63;47.86
40075;BME280;26529;51.530;11.754;2023-05-07T04:35:18;100496.63;;;20.62;47.44
40075;BME280;26529;51.530;11.754;2023-05-07T04:37:44;100502.81;;;20.63;47.49
40075;BME280;26529;51.530;11.754;2023-05-07T04:40:10;100498.34;;;20.63;47.49
40075;BME280;26529;51.530;11.754;2023-05-07T04:42:36;100502.81;;;20.63;47.44
40075;BME280;26529;51.530;11.754;2023-05-07T04:45:03;100508.16;;;20.63;47.52
40075;BME280;26529;51.530;11.754;2023-05-07T04:47:31;100512.63;;;20.62;47.48
40075;BME280;26529;51.530;11.754;2023-05-07T04:49:59;100511.75;;;20.61;47.43
40075;BME280;26529;51.530;11.754;2023-05-07T04:52:25;100508.16;;;20.63;47.57
40075;BME280;26529;51.530;11.754;2023-05-07T04:54:51;100507.28;;;20.62;47.55
40075;BME280;26529;51.530;11.754;2023-05-07T04:57:16;100511.75;;;20.61;47.68
40075;BME280;26529;51.530;11.754;2023-05-07T04:59:43;100512.63;;;20.62;47.50
40075;BME280;26529;51.530;11.754;2023-05-07T05:02:10;100513.47;;;20.63;47.55
40075;BME280;26529;51.530;11.754;2023-05-07T05:04:35;100518.81;;;20.63;47.49
40075;BME280;26529;51.530;11.754;2023-05-07T05:07:02;100521.47;;;20.63;47.48
40075;BME280;26529;51.530;11.754;2023-05-07T05:09:30;100522.31;;;20.63;47.10
40075;BME280;26529;51.530;11.754;2023-05-07T05:11:55;100529.56;;;20.61;47.50
40075;BME280;26529;51.530;11.754;2023-05-07T05:14:21;100528.59;;;20.62;47.47
40075;BME280;26529;51.530;11.754;2023-05-07T05:16:47;100538.38;;;20.61;47.33
40075;BME280;26529;51.530;11.754;2023-05-07T05:19:12;100538.38;;;20.61;47.39
40075;BME280;26529;51.530;11.754;2023-05-07T05:21:39;100543.72;;;20.61;47.46
40075;BME280;26529;51.530;11.754;2023-05-07T05:24:07;100545.44;;;20.63;47.50
40075;BME280;26529;51.530;11.754;2023-05-07T05:26:34;100549.03;;;20.61;47.33
40075;BME280;26529;51.530;11.754;2023-05-07T05:29:00;100542.88;;;20.61;47.48
40075;BME280;26529;51.530;11.754;2023-05-07T05:31:29;100548.19;;;20.61;47.56
40075;BME280;26529;51.530;11.754;2023-05-07T05:33:55;100543.72;;;20.61;47.54
40075;BME280;26529;51.530;11.754;2023-05-07T05:36:20;100549.03;;;20.61;47.41
40075;BME280;26529;51.530;11.754;2023-05-07T05:38:47;100550.00;;;20.60;47.43
40075;BME280;26529;51.530;11.754;2023-05-07T05:41:13;100555.25;;;20.62;47.41
40075;BME280;26529;51.530;11.754;2023-05-07T05:43:38;100554.38;;;20.61;47.57
40075;BME280;26529;51.530;11.754;2023-05-07T05:46:04;100550.78;;;20.63;47.58
40075;BME280;26529;51.530;11.754;2023-05-07T05:48:30;100538.19;;;20.65;47.37
40075;BME280;26529;51.530;11.754;2023-05-07T05:50:57;100547.16;;;20.64;47.54
40075;BME280;26529;51.530;11.754;2023-05-07T05:53:23;100545.31;;;20.64;47.47
40075;BME280;26529;51.530;11.754;2023-05-07T05:55:49;100550.56;;;20.66;47.68
40075;BME280;26529;51.530;11.754;2023-05-07T05:58:15;100547.03;;;20.65;47.49
40075;BME280;26529;51.530;11.754;2023-05-07T06:00:47;100554.09;;;20.66;47.52
40075;BME280;26529;51.530;11.754;2023-05-07T06:03:14;100557.59;;;20.67;47.53
40075;BME280;26529;51.530;11.754;2023-05-07T06:05:39;100557.59;;;20.67;47.66
40075;BME280;26529;51.530;11.754;2023-05-07T06:08:05;100562.94;;;20.67;47.56
40075;BME280;26529;51.530;11.754;2023-05-07T06:10:32;100563.78;;;20.67;47.53
40075;BME280;26529;51.530;11.754;2023-05-07T06:12:58;100560.25;;;20.67;47.65
40075;BME280;26529;51.530;11.754;2023-05-07T06:15:24;100561.00;;;20.69;47.61
40075;BME280;26529;51.530;11.754;2023-05-07T06:17:50;100566.47;;;20.67;47.66
40075;BME280;26529;51.530;11.754;2023-05-07T06:20:16;100559.31;;;20.68;47.65
40075;BME280;26529;51.530;11.754;2023-05-07T06:22:41;100563.78;;;20.67;47.70
40075;BME280;26529;51.530;11.754;2023-05-07T06:25:09;100569.94;;;20.68;47.60
40075;BME280;26529;51.530;11.754;2023-05-07T06:27:35;100559.31;;;20.68;47.61
40075;BME280;26529;51.530;11.754;2023-05-07T06:30:01;100564.63;;;20.68;47.64
40075;BME280;26529;51.530;11.754;2023-05-07T06:32:26;100556.63;;;20.68;47.84
40075;BME280;26529;51.530;11.754;2023-05-07T06:34:52;100564.63;;;20.68;47.57
40075;BME280;26529;51.530;11.754;2023-05-07T06:37:18;100564.63;;;20.68;47.65
40075;BME280;26529;51.530;11.754;2023-05-07T06:39:50;100570.72;;;20.70;47.49
40075;BME280;26529;51.530;11.754;2023-05-07T06:42:16;100575.09;;;20.71;47.72
40075;BME280;26529;51.530;11.754;2023-05-07T06:44:45;100567.94;;;20.71;47.45
40075;BME280;26529;51.530;11.754;2023-05-07T06:47:12;100576.81;;;20.72;47.58
40075;BME280;26529;51.530;11.754;2023-05-07T06:49:39;100573.94;;;20.75;47.73
40075;BME280;26529;51.530;11.754;2023-05-07T06:52:05;100571.25;;;20.75;47.48
40075;BME280;26529;51.530;11.754;2023-05-07T06:54:31;100573.00;;;20.76;47.58
40075;BME280;26529;51.530;11.754;2023-05-07T06:56:57;100562.34;;;20.76;47.49
40075;BME280;26529;51.530;11.754;2023-05-07T06:59:24;100569.38;;;20.77;47.53
40075;BME280;26529;51.530;11.754;2023-05-07T07:01:51;100566.72;;;20.77;47.45
40075;BME280;26529;51.530;11.754;2023-05-07T07:04:16;100568.41;;;20.78;47.45
40075;BME280;26529;51.530;11.754;2023-05-07T07:06:45;100565.75;;;20.78;47.60
40075;BME280;26529;51.530;11.754;2023-05-07T07:09:12;100574.47;;;20.80;47.58
40075;BME280;26529;51.530;11.754;2023-05-07T07:11:38;100576.19;;;20.81;47.19
40075;BME280;26529;51.530;11.754;2023-05-07T07:14:04;100582.28;;;20.83;47.56
40075;BME280;26529;51.530;11.754;2023-05-07T07:16:33;100587.63;;;20.83;47.59
40075;BME280;26529;51.530;11.754;2023-05-07T07:18:58;100588.56;;;20.82;47.53
40075;BME280;26529;51.530;11.754;2023-05-07T07:21:24;100585.88;;;20.82;47.45
40075;BME280;26529;51.530;11.754;2023-05-07T07:23:51;100588.56;;;20.82;47.57
40075;BME280;26529;51.530;11.754;2023-05-07T07:26:19;100585.13;;;20.80;47.45
40075;BME280;26529;51.530;11.754;2023-05-07T07:28:45;100581.50;;;20.81;47.40
40075;BME280;26529;51.530;11.754;2023-05-07T07:31:13;100586.84;;;20.81;47.34
40075;BME280;26529;51.530;11.754;2023-05-07T07:33:39;100586.84;;;20.81;47.49
40075;BME280;26529;51.530;11.754;2023-05-07T07:36:05;100586.84;;;20.81;47.60
40075;BME280;26529;51.530;11.754;2023-05-07T07:38:32;100593.13;;;20.80;47.41
40075;BME280;26529;51.530;11.754;2023-05-07T07:40:58;100595.81;;;20.80;47.35
40075;BME280;26529;51.530;11.754;2023-05-07T07:43:23;100595.81;;;20.80;47.29
40075;BME280;26529;51.530;11.754;2023-05-07T07:45:50;100611.78;;;20.80;47.48
40075;BME280;26529;51.530;11.754;2023-05-07T07:48:15;100602.84;;;20.81;47.07
40075;BME280;26529;51.530;11.754;2023-05-07T07:50:42;100609.03;;;20.82;47.37
40075;BME280;26529;51.530;11.754;2023-05-07T07:53:07;100603.72;;;20.82;47.42
40075;BME280;26529;51.530;11.754;2023-05-07T07:55:38;100603.72;;;20.82;47.39
40075;BME280;26529;51.530;11.754;2023-05-07T07:58:04;100609.88;;;20.82;47.26
40075;BME280;26529;51.530;11.754;2023-05-07T08:00:30;100615.19;;;20.82;47.33
40075;BME280;26529;51.530;11.754;2023-05-07T08:02:56;100602.84;;;20.81;47.63
40075;BME280;26529;51.530;11.754;2023-05-07T08:05:26;100623.19;;;20.82;47.37
40075;BME280;26529;51.530;11.754;2023-05-07T08:07:52;100621.41;;;20.83;47.50
40075;BME280;26529;51.530;11.754;2023-05-07T08:10:22;100626.72;;;20.83;47.37
40075;BME280;26529;51.530;11.754;2023-05-07T08:12:52;100631.19;;;20.82;47.44
40075;BME280;26529;51.530;11.754;2023-05-07T08:15:18;100633.78;;;20.84;47.42
40075;BME280;26529;51.530;11.754;2023-05-07T08:17:44;100632.00;;;20.84;47.31
40075;BME280;26529;51.530;11.754;2023-05-07T08:20:10;100631.03;;;20.85;47.53
40075;BME280;26529;51.530;11.754;2023-05-07T08:22:36;100629.34;;;20.84;47.47
40075;BME280;26529;51.530;11.754;2023-05-07T08:25:02;100631.03;;;20.85;47.57
40075;BME280;26529;51.530;11.754;2023-05-07T08:27:28;100611.41;;;20.86;47.54
40075;BME280;26529;51.530;11.754;2023-05-07T08:29:54;100610.56;;;20.86;47.69
40075;BME280;26529;51.530;11.754;2023-05-07T08:32:21;100611.41;;;20.86;47.33
40075;BME280;26529;51.530;11.754;2023-05-07T08:34:47;100622.09;;;20.86;47.42
40075;BME280;26529;51.530;11.754;2023-05-07T08:37:13;100627.41;;;20.86;47.54
40075;BME280;26529;51.530;11.754;2023-05-07T08:39:39;100631.03;;;20.85;47.45
40075;BME280;26529;51.530;11.754;2023-05-07T08:42:11;100630.09;;;20.86;47.47
40075;BME280;26529;51.530;11.754;2023-05-07T08:44:38;100630.09;;;20.86;47.34
40075;BME280;26529;51.530;11.754;2023-05-07T08:47:06;100622.09;;;20.86;47.53
40075;BME280;26529;51.530;11.754;2023-05-07T08:49:33;100630.81;;;20.88;47.58
40075;BME280;26529;51.530;11.754;2023-05-07T08:51:59;100623.69;;;20.89;47.38
40075;BME280;26529;51.530;11.754;2023-05-07T08:54:27;100632.56;;;20.90;47.47
40075;BME280;26529;51.530;11.754;2023-05-07T08:56:53;100631.59;;;20.91;47.46
40075;BME280;26529;51.530;11.754;2023-05-07T08:59:19;100633.31;;;20.92;47.44
40075;BME280;26529;51.530;11.754;2023-05-07T09:01:45;100635.97;;;20.92;47.33
40075;BME280;26529;51.530;11.754;2023-05-07T09:04:11;100638.53;;;20.93;47.59
40075;BME280;26529;51.530;11.754;2023-05-07T09:06:38;100636.72;;;20.94;47.57
40075;BME280;26529;51.530;11.754;2023-05-07T09:09:08;100636.72;;;20.94;47.46
40075;BME280;26529;51.530;11.754;2023-05-07T09:11:34;100644.72;;;20.94;47.36
40075;BME280;26529;51.530;11.754;2023-05-07T09:14:00;100633.22;;;20.93;47.43
40075;BME280;26529;51.530;11.754;2023-05-07T09:16:31;100643.88;;;20.93;47.44
40075;BME280;26529;51.530;11.754;2023-05-07T09:18:59;100640.25;;;20.94;47.50
40075;BME280;26529;51.530;11.754;2023-05-07T09:21:26;100638.41;;;20.95;47.39
40075;BME280;26529;51.530;11.754;2023-05-07T09:23:55;100641.09;;;20.95;47.56
40075;BME280;26529;51.530;11.754;2023-05-07T09:26:24;100641.09;;;20.95;47.42
40075;BME280;26529;51.530;11.754;2023-05-07T09:28:51;100641.00;;;20.96;47.44
40075;BME280;26529;51.530;11.754;2023-05-07T09:31:17;100641.97;;;20.95;47.45
40075;BME280;26529;51.530;11.754;2023-05-07T09:33:43;100648.13;;;20.96;47.36
40075;BME280;26529;51.530;11.754;2023-05-07T09:36:10;100648.13;;;20.96;47.47
40075;BME280;26529;51.530;11.754;2023-05-07T09:38:38;100649.00;;;20.96;47.32
40075;BME280;26529;51.530;11.754;2023-05-07T09:41:13;100653.47;;;20.96;47.35
40075;BME280;26529;51.530;11.754;2023-05-07T09:43:54;100648.13;;;20.96;47.38
40075;BME280;26529;51.530;11.754;2023-05-07T09:46:25;100653.47;;;20.96;47.16
40075;BME280;26529;51.530;11.754;2023-05-07T09:48:57;100649.94;;;20.95;47.38
40075;BME280;26529;51.530;11.754;2023-05-07T09:51:29;100648.13;;;20.96;47.38
40075;BME280;26529;51.530;11.754;2023-05-07T09:53:57;100650.78;;;20.96;47.34
40075;BME280;26529;51.530;11.754;2023-05-07T09:56:27;100651.75;;;20.95;47.32
40075;BME280;26529;51.530;11.754;2023-05-07T09:58:56;100652.63;;;20.95;47.26
40075;BME280;26529;51.530;11.754;2023-05-07T10:01:24;100653.47;;;20.96;47.24
40075;BME280;26529;51.530;11.754;2023-05-07T10:03:51;100649.94;;;20.95;47.17
40075;BME280;26529;51.530;11.754;2023-05-07T10:06:20;100645.47;;;20.96;47.15
40075;BME280;26529;51.530;11.754;2023-05-07T10:08:46;100641.09;;;20.95;47.25
40075;BME280;26529;51.530;11.754;2023-05-07T10:11:13;100645.47;;;20.96;47.25
40075;BME280;26529;51.530;11.754;2023-05-07T10:13:41;100643.75;;;20.95;47.12
40075;BME280;26529;51.530;11.754;2023-05-07T10:16:09;100651.75;;;20.95;47.03
40075;BME280;26529;51.530;11.754;2023-05-07T10:18:42;100649.84;;;20.97;47.15
40075;BME280;26529;51.530;11.754;2023-05-07T10:23:39;100647.19;;;20.97;47.13
40075;BME280;26529;51.530;11.754;2023-05-07T10:26:08;100644.53;;;20.97;47.02
40075;BME280;26529;51.530;11.754;2023-05-07T10:28:38;100649.00;;;20.96;47.13
40075;BME280;26529;51.530;11.754;2023-05-07T10:33:45;100655.19;;;20.97;47.15
40075;BME280;26529;51.530;11.754;2023-05-07T10:36:13;100647.19;;;20.97;46.96
40075;BME280;26529;51.530;11.754;2023-05-07T10:38:39;100648.13;;;20.96;47.09
40075;BME280;26529;51.530;11.754;2023-05-07T10:41:06;100655.19;;;20.97;47.17
40075;BME280;26529;51.530;11.754;2023-05-07T10:43:41;100653.47;;;20.96;47.06
40075;BME280;26529;51.530;11.754;2023-05-07T10:46:21;100660.53;;;20.97;47.18
40075;BME280;26529;51.530;11.754;2023-05-07T10:49:16;100653.59;;;20.94;47.14
40075;BME280;26529;51.530;11.754;2023-05-07T10:52:10;100652.63;;;20.95;46.99
40075;BME280;26529;51.530;11.754;2023-05-07T10:54:37;100655.28;;;20.95;47.16
40075;BME280;26529;51.530;11.754;2023-05-07T10:59:56;100665.06;;;20.95;47.17
40075;BME280;26529;51.530;11.754;2023-05-07T11:05:25;100668.69;;;20.94;47.14
40075;BME280;26529;51.530;11.754;2023-05-07T11:08:56;100659.75;;;20.95;47.11
40075;BME280;26529;51.530;11.754;2023-05-07T11:14:43;100644.72;;;20.94;47.04
40075;BME280;26529;51.530;11.754;2023-05-07T11:17:13;100650.91;;;20.94;47.13
40075;BME280;26529;51.530;11.754;2023-05-07T11:19:53;100644.72;;;20.94;47.08
40075;BME280;26529;51.530;11.754;2023-05-07T11:25:18;100649.22;;;20.93;47.11
40075;BME280;26529;51.530;11.754;2023-05-07T11:27:51;100643.00;;;20.93;47.14
40075;BME280;26529;51.530;11.754;2023-05-07T11:30:17;100643.00;;;20.93;47.05
40075;BME280;26529;51.530;11.754;2023-05-07T11:32:47;100638.63;;;20.92;47.01
40075;BME280;26529;51.530;11.754;2023-05-07T11:35:13;100643.00;;;20.93;46.99
40075;BME280;26529;51.530;11.754;2023-05-07T11:37:42;100639.47;;;20.92;47.05
40075;BME280;26529;51.530;11.754;2023-05-07T11:40:10;100648.34;;;20.93;46.93
40075;BME280;26529;51.530;11.754;2023-05-07T11:42:38;100651.00;;;20.93;46.98
40075;BME280;26529;51.530;11.754;2023-05-07T11:45:05;100648.34;;;20.93;47.26
40075;BME280;26529;51.530;11.754;2023-05-07T11:47:31;100655.47;;;20.92;47.11
40075;BME280;26529;51.530;11.754;2023-05-07T11:50:03;100651.97;;;20.92;47.05
40075;BME280;26529;51.530;11.754;2023-05-07T11:52:28;100647.47;;;20.92;47.06
40075;BME280;26529;51.530;11.754;2023-05-07T11:54:56;100651.97;;;20.92;47.00
40075;BME280;26529;51.530;11.754;2023-05-07T11:57:22;100662.63;;;20.92;46.94
40075;BME280;26529;51.530;11.754;2023-05-07T11:59:52;100657.28;;;20.92;46.93
40075;BME280;26529;51.530;11.754;2023-05-07T12:02:18;100659.97;;;20.92;47.01
40075;BME280;26529;51.530;11.754;2023-05-07T12:04:44;100662.63;;;20.92;46.96
40075;BME280;26529;51.530;11.754;2023-05-07T12:07:14;100657.28;;;20.92;47.11
40075;BME280;26529;51.530;11.754;2023-05-07T12:09:44;100659.97;;;20.92;46.99
40075;BME280;26529;51.530;11.754;2023-05-07T12:12:09;100653.66;;;20.93;46.86
40075;BME280;26529;51.530;11.754;2023-05-07T12:14:42;100661.56;;;20.94;46.98
40075;BME280;26529;51.530;11.754;2023-05-07T12:17:09;100650.03;;;20.94;46.91
40075;BME280;26529;51.530;11.754;2023-05-07T12:19:36;100652.81;;;20.92;46.98
40075;BME280;26529;51.530;11.754;2023-05-07T12:22:03;100653.66;;;20.93;46.96
40075;BME280;26529;51.530;11.754;2023-05-07T12:24:29;100650.91;;;20.94;47.00
40075;BME280;26529;51.530;11.754;2023-05-07T12:26:54;100646.41;;;20.95;47.09
40075;BME280;26529;51.530;11.754;2023-05-07T12:29:23;100650.78;;;20.96;46.90
40075;BME280;26529;51.530;11.754;2023-05-07T12:31:49;100662.31;;;20.96;46.81
40075;BME280;26529;51.530;11.754;2023-05-07T12:34:15;100662.41;;;20.95;46.94
40075;BME280;26529;51.530;11.754;2023-05-07T12:36:41;100656.13;;;20.96;46.96
40075;BME280;26529;51.530;11.754;2023-05-07T12:39:07;100653.47;;;20.96;46.96
40075;BME280;26529;51.530;11.754;2023-05-07T12:41:56;100646.41;;;20.95;46.97
40075;BME280;26529;51.530;11.754;2023-05-07T12:44:23;100661.56;;;20.94;47.00
40075;BME280;26529;51.530;11.754;2023-05-07T12:46:49;100652.72;;;20.94;46.99
40075;BME280;26529;51.530;11.754;2023-05-07T12:49:15;100657.09;;;20.95;47.06
40075;BME280;26529;51.530;11.754;2023-05-07T12:51:41;100663.38;;;20.94;47.04
40075;BME280;26529;51.530;11.754;2023-05-07T12:54:06;100665.06;;;20.95;47.00
40075;BME280;26529;51.530;11.754;2023-05-07T12:56:35;100655.28;;;20.95;46.93
40075;BME280;26529;51.530;11.754;2023-05-07T12:59:00;100668.53;;;20.97;46.93